Time;durP1;ratioP1;P1;durP2;ratioP2;P2;SDS_P1;SDS_P2;PMS_P1;PMS_P2;Temp;Humidity;BMP_temperature;BMP_pressure;BME280_temperature;BME280_humidity;BME280_pressure;Samples;Min_cycle;Max_cycle;Signal;HPM_P1;HPM_P2
2022/01/05 00:00:04;;;;;;;10.07;3.15;;;;;;;3.55;100.00;98859.72;5034297;28;20480;-59
2022/01/05 00:02:31;;;;;;;10.65;3.65;;;;;;;3.50;100.00;98853.94;5041223;28;20056;-61
2022/01/05 00:04:58;;;;;;;9.65;3.70;;;;;;;3.52;100.00;98846.91;5050818;28;20405;-61
2022/01/05 00:07:25;;;;;;;9.30;3.55;;;;;;;3.53;100.00;98843.38;5054865;28;20569;-61
2022/01/05 00:09:53;;;;;;;9.90;3.53;;;;;;;3.44;100.00;98849.13;5043892;28;20448;-59
2022/01/05 00:12:20;;;;;;;7.50;3.00;;;;;;;3.40;100.00;98856.25;5047620;28;20056;-61
2022/01/05 00:14:47;;;;;;;7.13;3.30;;;;;;;3.39;100.00;98857.19;5039899;28;20394;-60
2022/01/05 00:17:14;;;;;;;10.43;3.55;;;;;;;3.38;100.00;98859.84;5044965;28;20470;-62
2022/01/05 00:19:41;;;;;;;11.77;4.03;;;;;;;3.40;100.00;98860.63;5039937;28;20452;-60
2022/01/05 00:22:08;;;;;;;8.35;3.60;;;;;;;3.39;100.00;98866.75;5052249;28;20063;-63
2022/01/05 00:24:36;;;;;;;7.85;2.97;;;;;;;3.39;100.00;98867.59;5044896;28;20215;-62
2022/01/05 00:27:04;;;;;;;9.07;2.90;;;;;;;3.47;100.00;98880.16;5051823;28;20048;-59
2022/01/05 00:29:31;;;;;;;9.05;3.03;;;;;;;3.41;100.00;98857.91;5043524;28;20087;-59
2022/01/05 00:31:59;;;;;;;10.82;3.03;;;;;;;3.39;100.00;98859.78;5045961;28;20417;-60
2022/01/05 00:34:26;;;;;;;8.75;2.55;;;;;;;3.38;100.00;98865.06;5046199;28;20056;-59
2022/01/05 00:36:53;;;;;;;11.10;2.78;;;;;;;3.38;100.00;98862.47;5054535;28;20057;-61
2022/01/05 00:39:20;;;;;;;8.93;2.30;;;;;;;3.35;100.00;98862.66;5044226;28;20061;-60
2022/01/05 00:41:47;;;;;;;9.75;2.88;;;;;;;3.36;100.00;98867.75;5046887;28;20071;-62
2022/01/05 00:44:15;;;;;;;8.00;3.28;;;;;;;3.41;100.00;98864.88;5042581;28;20048;-62
2022/01/05 00:46:42;;;;;;;7.63;2.22;;;;;;;3.40;100.00;98869.25;5047696;28;20132;-61
2022/01/05 00:49:09;;;;;;;11.93;2.53;;;;;;;3.44;100.00;98862.13;5042634;28;20063;-62
2022/01/05 00:51:36;;;;;;;11.93;2.72;;;;;;;3.38;100.00;98867.66;5051997;28;20045;-61
2022/01/05 00:54:03;;;;;;;10.38;2.70;;;;;;;3.36;100.00;98862.56;5046796;28;20048;-62
2022/01/05 00:56:30;;;;;;;9.80;2.33;;;;;;;3.36;100.00;98866.91;5046892;28;20041;-62
2022/01/05 00:58:58;;;;;;;11.55;2.47;;;;;;;3.41;100.00;98859.69;5046803;28;20178;-62
2022/01/05 01:01:25;;;;;;;9.18;2.47;;;;;;;3.38;100.00;98855.50;5046814;28;20049;-61
2022/01/05 01:03:53;;;;;;;9.50;2.10;;;;;;;3.37;100.00;98853.81;5048139;28;20221;-63
2022/01/05 01:06:20;;;;;;;7.97;2.47;;;;;;;3.33;100.00;98844.50;5047873;28;20171;-59
2022/01/05 01:08:47;;;;;;;7.95;2.10;;;;;;;3.35;100.00;98839.25;5053173;28;20068;-58
2022/01/05 01:11:14;;;;;;;12.73;2.40;;;;;;;3.31;100.00;98838.59;5044552;28;20065;-61
2022/01/05 01:13:43;;;;;;;9.38;2.45;;;;;;;3.28;100.00;98842.19;5045952;28;20053;-59
2022/01/05 01:16:10;;;;;;;6.95;2.85;;;;;;;3.32;100.00;98849.81;5050048;28;20068;-60
2022/01/05 01:18:37;;;;;;;7.57;2.10;;;;;;;3.31;100.00;98846.38;5048679;28;20191;-60
2022/01/05 01:21:05;;;;;;;9.57;2.00;;;;;;;3.35;100.00;98847.03;5044496;28;20049;-60
2022/01/05 01:23:32;;;;;;;5.13;1.75;;;;;;;3.37;100.00;98848.63;5044702;28;20134;-61
2022/01/05 01:25:59;;;;;;;5.53;1.75;;;;;;;3.40;100.00;98864.06;5047929;28;20049;-62
2022/01/05 01:28:26;;;;;;;7.13;1.65;;;;;;;3.44;100.00;98865.56;5046814;28;20189;-59
2022/01/05 01:30:54;;;;;;;11.35;2.08;;;;;;;3.41;100.00;98863.13;5046147;28;20059;-61
2022/01/05 01:33:21;;;;;;;7.63;1.88;;;;;;;3.50;100.00;98852.19;5052426;28;20053;-60
2022/01/05 01:35:48;;;;;;;6.30;1.55;;;;;;;3.49;100.00;98855.72;5044217;28;20140;-60
2022/01/05 01:38:16;;;;;;;8.80;1.75;;;;;;;3.47;100.00;98854.97;5051422;28;20084;-61
2022/01/05 01:40:43;;;;;;;11.52;1.70;;;;;;;3.46;100.00;98852.44;5046166;28;20145;-59
2022/01/05 01:43:10;;;;;;;7.50;1.90;;;;;;;3.49;100.00;98849.69;5047602;28;20148;-58
2022/01/05 01:45:37;;;;;;;11.18;1.77;;;;;;;3.57;100.00;98857.06;5047602;28;20580;-59
2022/01/05 01:48:05;;;;;;;6.93;1.85;;;;;;;3.54;100.00;98865.84;5045048;28;20076;-57
2022/01/05 01:50:32;;;;;;;14.15;2.15;;;;;;;3.52;100.00;98860.75;5046877;28;20052;-59
2022/01/05 01:53:00;;;;;;;12.50;1.70;;;;;;;3.53;100.00;98858.97;5051361;28;20075;-57
2022/01/05 01:55:27;;;;;;;6.90;1.83;;;;;;;3.50;100.00;98849.59;5022634;28;20081;-60
2022/01/05 01:57:55;;;;;;;10.07;1.92;;;;;;;3.50;100.00;98846.97;5046185;28;20059;-59
2022/01/05 02:00:22;;;;;;;9.10;1.85;;;;;;;3.53;100.00;98849.41;5043509;28;20056;-60
2022/01/05 02:02:50;;;;;;;7.72;1.45;;;;;;;3.54;100.00;98842.44;5048030;28;20428;-59
2022/01/05 02:05:18;;;;;;;5.03;1.23;;;;;;;3.53;100.00;98833.81;5042445;28;20517;-60
2022/01/05 02:07:45;;;;;;;6.68;1.38;;;;;;;3.53;100.00;98835.56;5047804;28;20055;-61
2022/01/05 02:10:12;;;;;;;6.18;1.52;;;;;;;3.58;100.00;98830.09;5046215;28;20065;-57
2022/01/05 02:12:39;;;;;;;8.23;1.48;;;;;;;3.59;98.76;98827.41;5047978;28;20099;-60
2022/01/05 02:15:07;;;;;;;8.55;1.67;;;;;;;3.60;99.30;98833.44;5042851;28;20049;-59
2022/01/05 02:17:48;;;;;;;6.45;1.40;;;;;;;3.58;99.25;98824.91;5047038;28;20045;-56
2022/01/05 02:20:18;;;;;;;7.22;1.63;;;;;;;3.59;99.67;98832.59;5043172;28;20071;-60
2022/01/05 02:22:46;;;;;;;8.90;1.55;;;;;;;3.57;100.00;98831.03;5031075;28;20056;-55
2022/01/05 02:25:13;;;;;;;11.45;1.85;;;;;;;3.60;99.44;98843.84;5047741;28;20143;-59
2022/01/05 02:27:42;;;;;;;6.22;1.52;;;;;;;3.64;99.34;98850.53;5053853;28;20450;-59
2022/01/05 02:30:11;;;;;;;6.18;1.88;;;;;;;3.61;99.39;98850.75;5045467;28;20049;-57
2022/01/05 02:32:38;;;;;;;10.82;1.50;;;;;;;3.68;99.53;98842.47;5040758;28;20120;-59
2022/01/05 02:35:06;;;;;;;7.78;1.40;;;;;;;3.68;99.41;98852.88;5046592;28;20053;-59
2022/01/05 02:37:39;;;;;;;8.50;2.03;;;;;;;3.66;99.23;98853.91;5047681;28;20504;-60
2022/01/05 02:40:11;;;;;;;14.85;2.03;;;;;;;3.66;99.37;98865.16;5044841;28;20069;-61
2022/01/05 02:42:39;;;;;;;6.55;1.30;;;;;;;3.63;100.00;98865.31;5049126;28;20052;-61
2022/01/05 02:45:07;;;;;;;6.53;1.45;;;;;;;3.65;99.63;98858.28;5046372;28;20056;-59
2022/01/05 02:47:34;;;;;;;7.50;2.25;;;;;;;3.66;99.99;98865.16;5052599;28;20124;-56
2022/01/05 02:50:03;;;;;;;6.70;1.55;;;;;;;3.61;99.74;98861.16;5042800;28;20201;-60
2022/01/05 02:52:30;;;;;;;10.90;1.60;;;;;;;3.62;99.40;98857.63;5046011;28;20209;-58
2022/01/05 02:54:57;;;;;;;11.75;1.75;;;;;;;3.62;99.96;98850.63;5047267;28;20053;-58
2022/01/05 02:57:24;;;;;;;9.32;2.05;;;;;;;3.59;99.93;98849.97;5049978;28;20049;-59
2022/01/05 02:59:53;;;;;;;9.82;1.50;;;;;;;3.63;99.78;98849.72;5051692;28;20487;-57
2022/01/05 03:02:21;;;;;;;7.47;1.63;;;;;;;3.63;100.00;98851.47;5031406;28;20106;-59
2022/01/05 03:04:48;;;;;;;7.60;1.27;;;;;;;3.59;100.00;98860.38;5047786;28;20521;-57
2022/01/05 03:07:16;;;;;;;13.30;1.70;;;;;;;3.59;100.00;98861.22;5052033;28;20041;-60
2022/01/05 03:09:43;;;;;;;6.30;1.20;;;;;;;3.64;99.62;98856.56;5048467;28;20053;-60
2022/01/05 03:12:12;;;;;;;7.95;1.67;;;;;;;3.59;100.00;98860.38;5044652;28;20131;-58
2022/01/05 03:14:39;;;;;;;9.38;1.70;;;;;;;3.60;100.00;98859.44;5039439;28;20051;-60
2022/01/05 03:17:06;;;;;;;7.38;1.50;;;;;;;3.64;100.00;98855.75;5046288;28;20129;-58
2022/01/05 03:19:33;;;;;;;6.13;1.80;;;;;;;3.68;100.00;98847.66;5042972;28;20107;-59
2022/01/05 03:22:01;;;;;;;9.13;1.60;;;;;;;3.70;100.00;98839.78;5046227;28;20424;-58
2022/01/05 03:24:29;;;;;;;11.10;1.70;;;;;;;3.69;99.83;98838.97;5047095;28;20057;-58
2022/01/05 03:26:56;;;;;;;6.38;1.45;;;;;;;3.62;98.81;98823.78;5051346;28;20525;-58
2022/01/05 03:29:23;;;;;;;10.10;1.60;;;;;;;3.60;99.91;98828.22;5048926;28;20136;-59
2022/01/05 03:31:50;;;;;;;6.50;1.45;;;;;;;3.66;99.72;98839.13;5055813;28;20511;-59
2022/01/05 03:34:19;;;;;;;7.15;1.73;;;;;;;3.69;99.80;98848.50;5049085;28;20053;-58
2022/01/05 03:36:47;;;;;;;10.70;1.88;;;;;;;3.57;99.90;98844.03;5057203;28;22019;-60
2022/01/05 03:39:14;;;;;;;13.05;1.85;;;;;;;3.52;99.64;98846.91;5044322;28;20612;-59
2022/01/05 03:41:42;;;;;;;4.32;1.23;;;;;;;3.45;100.00;98843.81;5048603;28;20048;-58
2022/01/05 03:44:10;;;;;;;11.23;1.70;;;;;;;3.48;100.00;98843.66;5041499;28;20064;-60
2022/01/05 03:46:37;;;;;;;6.05;1.30;;;;;;;3.47;100.00;98849.78;5051111;28;20452;-62
2022/01/05 03:49:04;;;;;;;7.07;1.50;;;;;;;3.49;99.60;98844.47;5047208;28;20049;-60
2022/01/05 03:51:31;;;;;;;8.88;1.85;;;;;;;3.41;99.62;98842.31;5052576;28;20052;-60
2022/01/05 03:53:58;;;;;;;15.85;1.95;;;;;;;3.40;100.00;98850.22;5050117;28;20045;-60
2022/01/05 03:56:25;;;;;;;10.63;1.40;;;;;;;3.34;100.00;98848.81;5044854;28;20517;-61
2022/01/05 03:58:52;;;;;;;13.15;1.85;;;;;;;3.36;100.00;98854.75;5041920;28;20087;-57
2022/01/05 04:01:20;;;;;;;8.98;1.80;;;;;;;3.37;99.79;98851.22;5044680;28;20307;-61
2022/01/05 04:03:47;;;;;;;8.57;1.98;;;;;;;3.40;100.00;98845.84;5052534;28;20075;-60
2022/01/05 04:06:14;;;;;;;9.63;2.03;;;;;;;3.44;100.00;98859.53;5024400;28;20174;-61
2022/01/05 04:08:41;;;;;;;9.18;2.17;;;;;;;3.40;100.00;98858.84;5044037;28;20052;-59
2022/01/05 04:11:09;;;;;;;10.45;2.00;;;;;;;3.41;100.00;98854.47;5051253;28;21112;-59
2022/01/05 04:13:37;;;;;;;7.63;1.48;;;;;;;3.41;100.00;98852.72;5049356;28;20525;-60
2022/01/05 04:16:04;;;;;;;8.15;1.38;;;;;;;3.48;100.00;98867.06;5047828;28;20443;-60
2022/01/05 04:18:32;;;;;;;3.25;1.10;;;;;;;3.53;99.48;98854.63;5052585;28;20160;-60
2022/01/05 04:20:59;;;;;;;14.20;2.13;;;;;;;3.55;99.71;98862.31;5047711;28;20067;-60
2022/01/05 04:23:26;;;;;;;7.60;2.00;;;;;;;3.56;99.81;98861.41;5053089;28;20084;-59
2022/01/05 04:25:53;;;;;;;15.27;1.77;;;;;;;3.59;99.74;98869.03;5026741;28;20163;-60
2022/01/05 04:28:20;;;;;;;9.73;1.83;;;;;;;3.63;99.05;98872.28;5028536;28;20052;-59
2022/01/05 04:30:47;;;;;;;8.10;1.63;;;;;;;3.56;98.84;98874.44;5046763;28;20354;-62
2022/01/05 04:33:14;;;;;;;13.93;2.03;;;;;;;3.52;98.81;98878.13;5023812;28;20073;-59
2022/01/05 04:36:02;;;;;;;12.85;1.70;;;;;;;3.47;99.05;98873.19;5042623;28;20104;-58
2022/01/05 04:38:29;;;;;;;8.85;1.30;;;;;;;3.48;99.24;98874.84;5046644;28;21082;-60
2022/01/05 04:40:56;;;;;;;8.50;1.40;;;;;;;3.50;98.14;98885.16;5039900;28;20063;-60
2022/01/05 04:43:23;;;;;;;7.50;1.58;;;;;;;3.26;98.66;98888.25;5035122;28;20052;-62
2022/01/05 04:45:56;;;;;;;8.63;1.50;;;;;;;3.30;98.66;98887.16;5045720;28;20168;-61
2022/01/05 04:48:23;;;;;;;11.43;1.50;;;;;;;3.20;99.37;98885.19;5029587;28;20051;-63
2022/01/05 04:50:50;;;;;;;7.13;1.50;;;;;;;3.13;100.00;98876.88;5046111;28;20056;-59
2022/01/05 04:53:17;;;;;;;5.88;1.35;;;;;;;3.07;100.00;98872.03;5043392;28;20074;-61
2022/01/05 04:55:44;;;;;;;7.10;1.70;;;;;;;3.05;100.00;98873.84;5046946;28;20098;-62
2022/01/05 04:58:11;;;;;;;7.75;1.40;;;;;;;3.05;100.00;98892.88;5044334;28;20138;-62
2022/01/05 05:00:39;;;;;;;8.85;1.80;;;;;;;3.04;100.00;98900.78;5043352;28;20071;-63
2022/01/05 05:03:06;;;;;;;7.07;1.60;;;;;;;2.94;100.00;98889.22;5036099;28;20127;-61
2022/01/05 05:05:35;;;;;;;8.32;2.05;;;;;;;2.85;100.00;98887.13;5034674;28;20072;-59
2022/01/05 05:08:03;;;;;;;6.13;1.73;;;;;;;2.86;100.00;98884.44;5043503;28;20612;-59
2022/01/05 05:10:30;;;;;;;12.68;1.92;;;;;;;2.82;100.00;98884.69;5039014;28;20048;-59
2022/01/05 05:12:57;;;;;;;13.45;1.40;;;;;;;2.79;100.00;98875.28;5038124;28;20073;-61
2022/01/05 05:15:24;;;;;;;11.40;1.85;;;;;;;2.79;100.00;98855.38;5038145;28;20061;-60
2022/01/05 05:17:51;;;;;;;7.07;1.30;;;;;;;2.74;100.00;98848.72;5041324;28;20046;-60
2022/01/05 05:20:19;;;;;;;11.55;1.77;;;;;;;2.66;100.00;98856.13;5040250;28;20060;-61
2022/01/05 05:22:46;;;;;;;9.15;1.60;;;;;;;2.59;100.00;98866.00;5038630;28;20097;-61
2022/01/05 05:25:13;;;;;;;6.53;2.35;;;;;;;2.57;100.00;98864.41;5040075;28;20106;-58
2022/01/05 05:27:40;;;;;;;8.35;1.75;;;;;;;2.57;100.00;98869.59;5035932;28;20063;-60
2022/01/05 05:30:27;;;;;;;9.38;1.60;;;;;;;2.56;100.00;98862.72;5039134;28;20080;-61
2022/01/05 05:32:57;;;;;;;6.68;1.33;;;;;;;2.56;100.00;98865.31;5021465;28;20049;-57
2022/01/05 05:35:26;;;;;;;8.90;1.60;;;;;;;2.57;100.00;98867.00;5042978;28;20098;-60
2022/01/05 05:37:54;;;;;;;9.38;1.50;;;;;;;2.57;100.00;98857.47;5043720;28;20147;-62
2022/01/05 05:40:21;;;;;;;10.88;1.95;;;;;;;2.59;100.00;98860.81;5041763;28;20136;-60
2022/01/05 05:42:49;;;;;;;9.43;1.63;;;;;;;2.63;100.00;98862.31;5040197;28;20059;-57
2022/01/05 05:45:16;;;;;;;8.98;1.70;;;;;;;2.66;100.00;98856.13;5037953;28;20572;-58
2022/01/05 05:47:43;;;;;;;10.90;1.48;;;;;;;2.58;100.00;98860.91;5023255;28;20553;-61
2022/01/05 05:50:11;;;;;;;6.38;1.75;;;;;;;2.52;100.00;98868.13;5041100;28;20143;-62
2022/01/05 05:52:38;;;;;;;8.60;1.88;;;;;;;2.46;100.00;98873.63;5042318;28;20045;-60
2022/01/05 05:55:05;;;;;;;8.45;1.85;;;;;;;2.40;100.00;98865.34;5043882;28;20624;-59
2022/01/05 05:57:40;;;;;;;9.73;1.70;;;;;;;2.50;100.00;98871.69;5026890;28;20091;-61
2022/01/05 06:00:08;;;;;;;9.90;1.45;;;;;;;2.47;100.00;98866.66;5038284;28;20127;-59
2022/01/05 06:02:35;;;;;;;7.95;1.40;;;;;;;2.43;100.00;98872.94;5046569;28;20062;-60
2022/01/05 06:05:03;;;;;;;6.28;1.70;;;;;;;2.47;100.00;98875.28;5043253;28;20049;-61
2022/01/05 06:07:30;;;;;;;10.13;1.48;;;;;;;2.41;100.00;98873.03;5040366;28;20064;-60
2022/01/05 06:09:58;;;;;;;9.05;2.20;;;;;;;2.49;100.00;98885.63;5039020;28;20401;-62
2022/01/05 06:12:26;;;;;;;13.38;2.67;;;;;;;2.43;100.00;98884.19;5043276;28;20049;-60
2022/01/05 06:14:53;;;;;;;9.93;1.70;;;;;;;2.48;100.00;98878.75;5036376;28;20069;-61
2022/01/05 06:17:21;;;;;;;13.23;2.13;;;;;;;2.48;100.00;98881.34;5043874;28;20057;-61
2022/01/05 06:19:48;;;;;;;9.70;1.92;;;;;;;2.41;100.00;98878.22;5020728;28;20171;-63
2022/01/05 06:22:15;;;;;;;10.05;1.50;;;;;;;2.40;100.00;98871.34;5041997;28;20049;-64
2022/01/05 06:24:48;;;;;;;8.23;1.85;;;;;;;2.41;100.00;98872.19;5038453;28;20057;-62
2022/01/05 06:27:15;;;;;;;14.43;1.95;;;;;;;2.48;100.00;98878.75;5047105;28;20428;-59
2022/01/05 06:29:42;;;;;;;10.57;1.92;;;;;;;2.43;100.00;98885.91;5037663;28;20061;-62
2022/01/05 06:32:09;;;;;;;11.95;1.95;;;;;;;2.45;100.00;98886.69;5042746;28;20045;-60
2022/01/05 06:34:36;;;;;;;8.45;1.75;;;;;;;2.55;100.00;98890.47;5038531;28;20055;-60
2022/01/05 06:37:05;;;;;;;11.45;1.98;;;;;;;2.41;100.00;98896.41;5042337;28;20060;-58
2022/01/05 06:39:32;;;;;;;12.77;2.00;;;;;;;2.36;100.00;98897.56;5040410;28;20057;-60
2022/01/05 06:41:59;;;;;;;10.15;1.75;;;;;;;2.34;100.00;98902.00;5040261;28;20054;-61
2022/01/05 06:44:27;;;;;;;10.60;2.58;;;;;;;2.33;100.00;98905.50;5044675;28;20058;-62
2022/01/05 06:46:54;;;;;;;10.05;2.30;;;;;;;2.35;100.00;98904.53;5041973;28;20055;-64
2022/01/05 06:49:23;;;;;;;14.57;2.65;;;;;;;2.44;100.00;98911.84;5042495;28;20065;-61
2022/01/05 06:51:51;;;;;;;9.35;2.05;;;;;;;2.37;100.00;98918.25;5039175;28;20222;-63
2022/01/05 06:54:18;;;;;;;9.05;2.08;;;;;;;2.40;100.00;98936.28;5039595;28;20057;-62
2022/01/05 06:56:46;;;;;;;17.38;2.95;;;;;;;2.38;100.00;98922.53;5042280;28;20140;-62
2022/01/05 06:59:14;;;;;;;10.00;1.67;;;;;;;2.40;100.00;98930.25;5041114;28;20072;-59
2022/01/05 07:01:42;;;;;;;10.25;2.05;;;;;;;2.45;100.00;98931.69;5040659;28;20139;-59
2022/01/05 07:04:09;;;;;;;19.00;3.65;;;;;;;2.42;100.00;98934.44;5041043;28;20574;-62
2022/01/05 07:06:36;;;;;;;9.63;2.00;;;;;;;2.40;100.00;98940.66;5040382;28;20045;-58
2022/01/05 07:09:03;;;;;;;15.20;2.78;;;;;;;2.47;100.00;98945.41;5041002;28;20116;-60
2022/01/05 07:11:31;;;;;;;7.07;1.77;;;;;;;2.43;100.00;98959.50;5042126;28;20357;-58
2022/01/05 07:13:59;;;;;;;12.23;2.05;;;;;;;2.51;100.00;98959.09;5045982;28;20525;-62
2022/01/05 07:16:26;;;;;;;11.55;2.40;;;;;;;2.49;100.00;98953.97;5040216;28;20079;-57
2022/01/05 07:18:53;;;;;;;8.32;2.58;;;;;;;2.56;100.00;98964.03;5045782;28;20055;-59
2022/01/05 07:21:20;;;;;;;18.50;2.80;;;;;;;2.51;100.00;98962.53;5047447;28;20056;-60
2022/01/05 07:23:47;;;;;;;14.45;2.08;;;;;;;2.65;100.00;98953.16;5038378;28;20076;-59
2022/01/05 07:26:15;;;;;;;14.98;2.30;;;;;;;2.66;100.00;98949.66;5049002;28;20056;-58
2022/01/05 07:28:42;;;;;;;14.40;2.10;;;;;;;2.63;100.00;98955.00;5049717;28;20061;-61
2022/01/05 07:31:09;;;;;;;11.75;2.13;;;;;;;2.60;100.00;98968.16;5041074;28;20061;-61
2022/01/05 07:33:36;;;;;;;11.90;1.95;;;;;;;2.59;100.00;98971.69;5045289;28;20136;-58
2022/01/05 07:36:04;;;;;;;10.80;2.35;;;;;;;2.59;100.00;98958.69;5046586;28;20088;-60
2022/01/05 07:38:31;;;;;;;7.03;1.92;;;;;;;2.61;100.00;98962.03;5047103;28;20172;-57
2022/01/05 07:40:58;;;;;;;5.57;1.65;;;;;;;2.71;100.00;98955.44;5046539;28;20064;-61
2022/01/05 07:43:25;;;;;;;13.57;1.70;;;;;;;2.65;100.00;98966.97;5048545;28;20053;-59
2022/01/05 07:45:53;;;;;;;15.90;2.40;;;;;;;2.66;100.00;98960.91;5050979;28;20088;-60
2022/01/05 07:48:21;;;;;;;11.45;2.38;;;;;;;2.66;100.00;98957.47;5050914;28;20056;-60
2022/01/05 07:50:48;;;;;;;10.45;2.17;;;;;;;2.62;100.00;98961.97;5043384;28;20064;-61
2022/01/05 07:53:15;;;;;;;15.45;3.22;;;;;;;2.64;100.00;98959.28;5045708;28;20118;-60
2022/01/05 07:55:43;;;;;;;15.75;2.67;;;;;;;2.69;100.00;98972.88;5047684;28;20052;-57
2022/01/05 07:58:10;;;;;;;13.88;1.80;;;;;;;2.65;100.00;98969.59;5050880;28;21351;-59
2022/01/05 08:00:38;;;;;;;16.05;2.05;;;;;;;2.66;100.00;98971.28;5038944;28;20211;-60
2022/01/05 08:03:05;;;;;;;11.80;2.47;;;;;;;2.73;99.47;98970.03;5027172;28;20105;-59
2022/01/05 08:05:33;;;;;;;14.40;2.10;;;;;;;2.74;98.34;98966.50;5041142;28;20099;-62
2022/01/05 08:08:00;;;;;;;9.55;2.00;;;;;;;2.68;98.78;98961.63;5052754;28;20127;-59
2022/01/05 08:10:27;;;;;;;7.72;1.63;;;;;;;2.72;98.24;98964.91;5031000;28;20122;-59
2022/01/05 08:12:54;;;;;;;15.02;2.08;;;;;;;2.72;98.22;98955.34;5047900;28;20648;-61
2022/01/05 08:15:21;;;;;;;16.65;2.33;;;;;;;2.76;98.07;98969.88;5029663;28;20509;-59
2022/01/05 08:17:49;;;;;;;17.42;2.88;;;;;;;2.69;98.93;98972.88;5047799;28;20076;-61
2022/01/05 08:20:16;;;;;;;9.68;1.90;;;;;;;2.68;99.19;98979.00;5043896;28;20051;-59
2022/01/05 08:22:45;;;;;;;15.52;2.35;;;;;;;2.67;99.06;98966.94;5044861;28;20507;-62
2022/01/05 08:25:15;;;;;;;13.43;2.22;;;;;;;2.64;98.25;98972.28;5043638;28;20166;-63
2022/01/05 08:27:48;;;;;;;9.30;2.15;;;;;;;2.65;98.21;98974.78;5046243;28;20393;-59
2022/01/05 08:30:17;;;;;;;13.25;2.13;;;;;;;2.62;96.27;98963.72;5034729;28;20075;-61
2022/01/05 08:32:46;;;;;;;12.15;2.30;;;;;;;2.58;96.56;98977.81;5029242;28;20076;-60
2022/01/05 08:35:18;;;;;;;12.32;2.45;;;;;;;2.59;96.08;98975.13;5041767;28;20416;-59
2022/01/05 08:37:47;;;;;;;14.25;2.30;;;;;;;2.60;96.54;98983.75;5046161;28;20691;-59
2022/01/05 08:40:20;;;;;;;13.55;2.50;;;;;;;2.59;96.22;98979.47;5046353;28;20066;-60
2022/01/05 08:42:47;;;;;;;12.80;2.03;;;;;;;2.51;96.66;98972.06;5032389;28;20106;-61
2022/01/05 08:45:16;;;;;;;18.58;3.17;;;;;;;2.54;96.14;98975.34;5039700;28;20516;-61
2022/01/05 08:47:47;;;;;;;14.77;2.10;;;;;;;2.59;95.82;98971.69;5049872;28;20091;-60
2022/01/05 08:50:18;;;;;;;18.95;3.25;;;;;;;2.53;95.76;98978.88;5044848;28;20422;-62
2022/01/05 08:52:45;;;;;;;7.38;1.90;;;;;;;2.58;95.61;98983.00;5049906;28;20566;-62
2022/01/05 08:55:13;;;;;;;14.65;2.75;;;;;;;2.60;95.05;98986.34;5044611;28;20157;-61
2022/01/05 08:57:42;;;;;;;10.38;2.03;;;;;;;2.63;94.37;98979.22;5039193;28;20669;-61
2022/01/05 09:00:10;;;;;;;12.43;2.70;;;;;;;2.72;92.66;98980.50;5028032;28;20044;-58
2022/01/05 09:02:38;;;;;;;15.80;2.50;;;;;;;2.76;92.71;98972.47;5043189;28;20468;-60
2022/01/05 09:05:06;;;;;;;11.32;2.13;;;;;;;2.87;92.18;98979.69;5038245;28;20158;-59
2022/01/05 09:07:34;;;;;;;11.45;2.17;;;;;;;2.89;90.99;98977.00;5047543;28;20135;-61
2022/01/05 09:10:03;;;;;;;10.38;2.20;;;;;;;2.97;89.93;98991.28;5044471;28;20051;-60
2022/01/05 09:12:31;;;;;;;14.77;2.50;;;;;;;2.96;89.70;98994.78;5039842;28;20598;-61
2022/01/05 09:14:59;;;;;;;11.68;2.03;;;;;;;3.05;88.95;98983.88;5041553;28;20060;-58
2022/01/05 09:17:27;;;;;;;11.48;1.95;;;;;;;3.15;88.29;98989.44;5045070;28;20163;-58
2022/01/05 09:19:55;;;;;;;11.18;2.28;;;;;;;3.34;87.36;98999.66;5041804;28;20486;-59
2022/01/05 09:22:22;;;;;;;13.43;2.17;;;;;;;3.61;85.60;99001.66;5025838;28;20089;-61
2022/01/05 09:24:51;;;;;;;11.60;2.67;;;;;;;3.75;85.35;99005.16;5041513;28;20049;-61
2022/01/05 09:27:19;;;;;;;13.77;1.95;;;;;;;3.93;82.73;99005.03;5042092;28;20212;-59
2022/01/05 09:29:46;;;;;;;12.65;2.45;;;;;;;4.05;81.89;99001.69;5038219;28;20119;-61
2022/01/05 09:32:13;;;;;;;18.33;2.22;;;;;;;4.40;80.20;99020.47;5051893;28;20048;-62
2022/01/05 09:34:41;;;;;;;10.10;2.00;;;;;;;4.39;79.73;99005.78;5042127;28;20053;-59
2022/01/05 09:37:19;;;;;;;15.98;2.40;;;;;;;4.28;78.96;99005.59;5045181;28;20121;-61
2022/01/05 09:42:32;;;;;;;9.00;2.28;;;;;;;4.11;79.11;99016.97;5041333;28;20053;-61
2022/01/05 09:45:01;;;;;;;8.57;2.08;;;;;;;4.22;78.38;99019.78;5037093;28;20048;-59
2022/01/05 09:47:44;;;;;;;11.82;2.08;;;;;;;4.51;77.10;99006.81;5024052;28;20564;-60
2022/01/05 09:50:12;;;;;;;13.40;2.25;;;;;;;4.40;76.57;99004.84;5018364;28;20069;-60
2022/01/05 09:52:42;;;;;;;22.30;2.55;;;;;;;4.76;75.20;99019.19;5040083;28;20060;-61
2022/01/05 09:55:11;;;;;;;8.38;1.80;;;;;;;5.01;74.50;99014.16;5040496;28;20055;-60
2022/01/05 09:57:40;;;;;;;8.25;2.33;;;;;;;4.99;73.92;99021.22;5043071;28;20136;-60
2022/01/05 10:00:09;;;;;;;13.52;2.33;;;;;;;5.19;73.33;99009.56;5040108;28;20129;-60
2022/01/05 10:02:40;;;;;;;10.65;1.90;;;;;;;5.25;73.04;99019.63;5043084;28;20144;-61
2022/01/05 10:05:13;;;;;;;12.85;1.80;;;;;;;4.90;72.75;99005.31;5021839;28;20053;-59
2022/01/05 10:07:41;;;;;;;12.88;2.13;;;;;;;4.57;74.21;99014.25;5044517;28;20545;-58
2022/01/05 10:10:10;;;;;;;10.93;2.05;;;;;;;4.50;75.41;99011.19;5019755;28;20049;-63
2022/01/05 10:12:37;;;;;;;11.80;2.45;;;;;;;4.20;76.17;99018.22;5041844;28;20142;-57
2022/01/05 10:15:12;;;;;;;13.30;2.30;;;;;;;4.15;76.57;99026.28;5039134;28;20049;-57
2022/01/05 10:17:41;;;;;;;14.27;2.38;;;;;;;4.12;77.12;99036.03;5023857;28;20059;-61
2022/01/05 10:20:10;;;;;;;16.17;2.00;;;;;;;4.19;76.37;99019.16;5046247;28;20408;-56
2022/01/05 10:22:44;;;;;;;12.02;2.33;;;;;;;4.23;76.62;99050.13;5043513;28;20045;-59
2022/01/05 10:25:16;;;;;;;17.15;2.50;;;;;;;4.13;76.22;99022.09;5028890;28;20156;-59
2022/01/05 10:27:57;;;;;;;14.63;3.10;;;;;;;4.19;76.51;99024.34;5042908;28;20043;-61
2022/01/05 10:30:43;;;;;;;10.13;2.50;;;;;;;4.13;76.82;99029.91;5038339;28;20059;-58
2022/01/05 10:33:10;;;;;;;11.30;2.13;;;;;;;4.00;76.49;99027.16;5036164;28;20064;-58
2022/01/05 10:35:38;;;;;;;13.48;2.10;;;;;;;4.03;76.68;99011.38;5042537;28;20049;-60
2022/01/05 10:38:13;;;;;;;11.95;2.17;;;;;;;3.88;76.31;99010.50;5041698;28;20068;-58
2022/01/05 10:40:42;;;;;;;10.23;2.42;;;;;;;3.90;76.18;99024.25;5042023;28;20056;-59
2022/01/05 10:43:11;;;;;;;9.18;2.50;;;;;;;3.95;76.66;99010.97;5047843;28;20147;-59
2022/01/05 10:45:41;;;;;;;13.80;3.15;;;;;;;4.13;76.23;99012.50;5045979;28;20388;-57
2022/01/05 10:48:26;;;;;;;15.27;2.42;;;;;;;4.02;76.10;99031.38;5047391;28;20133;-58
2022/01/05 10:51:04;;;;;;;10.60;2.40;;;;;;;4.06;75.64;99017.25;5039094;28;20120;-59
2022/01/05 10:53:31;;;;;;;11.65;2.22;;;;;;;3.93;75.89;99016.28;5043243;28;20074;-58
2022/01/05 10:55:58;;;;;;;14.20;2.58;;;;;;;3.99;76.23;99008.09;5037438;28;20160;-60
2022/01/05 10:58:41;;;;;;;10.88;1.90;;;;;;;4.20;74.44;99000.81;5056634;28;20495;-57
2022/01/05 11:01:27;;;;;;;13.55;3.17;;;;;;;4.31;74.74;99000.16;5044607;28;20049;-58
2022/01/05 11:03:54;;;;;;;8.55;1.92;;;;;;;4.32;74.08;99015.72;5051683;28;20531;-58
2022/01/05 11:06:21;;;;;;;15.98;2.75;;;;;;;4.42;72.41;99016.03;5034227;28;20132;-58
2022/01/05 11:08:48;;;;;;;11.68;2.83;;;;;;;4.85;72.08;98997.78;5042994;28;20502;-59
2022/01/05 11:11:42;;;;;;;11.60;2.38;;;;;;;5.11;70.22;98993.56;5046508;28;20059;-60
2022/01/05 11:14:16;;;;;;;11.15;3.25;;;;;;;4.99;70.03;99029.06;5044974;28;20040;-60
2022/01/05 11:16:47;;;;;;;10.93;2.33;;;;;;;4.83;70.56;99013.53;5054724;28;20089;-58
2022/01/05 11:19:19;;;;;;;10.65;2.30;;;;;;;4.98;70.38;99003.91;5036688;28;20099;-62
2022/01/05 11:22:14;;;;;;;14.73;2.33;;;;;;;5.03;69.23;99019.28;5046195;28;20128;-62
2022/01/05 11:24:42;;;;;;;14.85;3.22;;;;;;;5.12;69.42;99015.25;5040253;28;20052;-59
2022/01/05 11:27:14;;;;;;;10.55;1.98;;;;;;;4.83;70.07;99012.69;5043966;28;20057;-58
2022/01/05 11:29:43;;;;;;;11.10;2.40;;;;;;;5.10;69.42;98999.72;5040322;28;20564;-59
2022/01/05 11:32:13;;;;;;;13.60;2.58;;;;;;;5.50;68.39;98994.59;5040511;28;20133;-62
2022/01/05 11:34:40;;;;;;;9.77;1.88;;;;;;;5.86;66.36;98985.31;5013570;28;20080;-59
2022/01/05 11:37:08;;;;;;;10.73;2.28;;;;;;;5.64;65.95;98996.31;5037511;28;20132;-62
2022/01/05 11:39:41;;;;;;;8.95;2.13;;;;;;;6.11;65.52;98984.53;5045790;28;20131;-59